createdAt,value
2022-11-04T00:01:53.188Z,10.94
2022-11-04T00:04:21.685Z,10.85
2022-11-04T00:06:48.867Z,10.83
2022-11-04T00:09:19.085Z,10.72
2022-11-04T00:12:04.238Z,10.68
2022-11-04T00:14:31.683Z,10.69
2022-11-04T00:17:17.460Z,10.70
2022-11-04T00:20:02.667Z,10.65
2022-11-04T00:22:47.965Z,10.68
2022-11-04T00:25:33.329Z,10.61
2022-11-04T00:28:32.811Z,10.64
2022-11-04T00:31:19.477Z,10.63
2022-11-04T00:33:47.193Z,10.62
2022-11-04T00:36:13.725Z,10.58
2022-11-04T00:38:40.319Z,10.56
2022-11-04T00:41:26.229Z,10.57
2022-11-04T00:43:53.293Z,10.58
2022-11-04T00:46:20.125Z,10.56
2022-11-04T00:48:46.860Z,10.50
2022-11-04T00:54:00.160Z,10.50
2022-11-04T00:56:26.863Z,10.49
2022-11-04T00:58:53.482Z,10.47
2022-11-04T01:01:20.753Z,10.48
2022-11-04T01:03:49.688Z,10.47
2022-11-04T01:06:16.759Z,10.44
2022-11-04T01:08:43.349Z,10.40
2022-11-04T01:11:10.969Z,10.37
2022-11-04T01:13:38.278Z,10.39
2022-11-04T01:16:08.203Z,10.42
2022-11-04T01:18:35.105Z,10.37
2022-11-04T01:21:03.119Z,10.38
2022-11-04T01:23:29.850Z,10.37
2022-11-04T01:25:56.597Z,10.22
2022-11-04T01:28:23.465Z,10.16
2022-11-04T01:30:50.122Z,10.12
2022-11-04T01:33:16.781Z,10.13
2022-11-04T01:35:43.825Z,10.11
2022-11-04T01:38:11.261Z,10.10
2022-11-04T01:40:39.923Z,10.05
2022-11-04T01:43:18.276Z,10.00
2022-11-04T01:45:48.954Z,9.90
2022-11-04T01:48:27.044Z,9.87
2022-11-04T01:50:54.555Z,9.85
2022-11-04T01:53:30.527Z,9.78
2022-11-04T01:55:59.876Z,9.80
2022-11-04T01:58:30.512Z,9.75
2022-11-04T02:00:57.232Z,9.73
2022-11-04T02:03:28.630Z,9.68
2022-11-04T02:05:55.688Z,9.62
2022-11-04T02:08:22.605Z,9.67
2022-11-04T02:10:55.032Z,9.59
2022-11-04T02:13:21.765Z,9.57
2022-11-04T02:16:03.889Z,9.50
2022-11-04T02:19:02.381Z,9.50
2022-11-04T02:21:43.994Z,9.39
2022-11-04T02:24:44.391Z,9.41
2022-11-04T02:27:34.399Z,9.38
2022-11-04T02:30:14.427Z,9.44
2022-11-04T02:32:46.975Z,9.41
2022-11-04T02:35:32.047Z,9.35
2022-11-04T02:38:16.968Z,9.37
2022-11-04T02:40:55.902Z,9.28
2022-11-04T02:43:31.564Z,9.26
2022-11-04T02:46:17.920Z,9.23
2022-11-04T02:49:02.825Z,9.25
2022-11-04T02:51:35.695Z,9.20
2022-11-04T02:54:12.801Z,9.21
2022-11-04T02:56:45.148Z,9.15
2022-11-04T02:59:16.715Z,9.15
2022-11-04T03:01:47.130Z,9.14
2022-11-04T03:04:16.450Z,9.09
2022-11-04T03:06:45.670Z,9.06
2022-11-04T03:09:14.548Z,9.03
2022-11-04T03:11:45.651Z,8.97
2022-11-04T03:14:22.162Z,8.86
2022-11-04T03:16:52.075Z,8.89
2022-11-04T03:19:43.369Z,8.82
2022-11-04T03:22:20.387Z,8.76
2022-11-04T03:24:48.248Z,8.73
2022-11-04T03:27:24.941Z,8.72
2022-11-04T03:30:00.831Z,8.77
2022-11-04T03:32:36.712Z,8.70
2022-11-04T03:35:04.305Z,8.67
2022-11-04T03:37:30.938Z,8.73
2022-11-04T03:39:57.599Z,8.68
2022-11-04T03:42:25.172Z,8.73
2022-11-04T03:44:57.015Z,8.65
2022-11-04T03:47:26.598Z,8.59
2022-11-04T03:50:03.512Z,8.67
2022-11-04T03:52:30.148Z,8.61
2022-11-04T03:54:57.123Z,8.57
2022-11-04T03:57:52.249Z,8.53
2022-11-04T04:00:23.463Z,8.49
2022-11-04T04:02:53.118Z,8.56
2022-11-04T04:05:27.480Z,8.50
2022-11-04T04:08:10.938Z,8.45
2022-11-04T04:10:51.437Z,8.43
2022-11-04T04:13:30.938Z,8.46
2022-11-04T04:16:11.962Z,8.47
2022-11-04T04:18:38.441Z,8.47
2022-11-04T04:21:08.233Z,8.42
2022-11-04T04:23:55.335Z,8.49
2022-11-04T04:26:48.300Z,8.55
2022-11-04T04:29:17.563Z,8.51
2022-11-04T04:31:49.934Z,8.52
2022-11-04T04:34:23.638Z,8.47
2022-11-04T04:36:55.515Z,8.43
2022-11-04T04:39:44.483Z,8.48
2022-11-04T04:42:30.009Z,8.43
2022-11-04T04:45:05.791Z,8.47
2022-11-04T04:47:40.513Z,8.50
2022-11-04T04:50:07.762Z,8.53
2022-11-04T04:52:38.717Z,8.55
2022-11-04T04:55:06.288Z,8.53
2022-11-04T04:57:32.863Z,8.56
2022-11-04T04:59:59.401Z,8.65
2022-11-04T05:02:26.043Z,8.62
2022-11-04T05:04:52.659Z,8.61
2022-11-04T05:07:19.288Z,8.55
2022-11-04T05:09:45.846Z,8.45
2022-11-04T05:12:12.421Z,8.38
2022-11-04T05:14:38.989Z,8.18
2022-11-04T05:17:05.548Z,8.11
2022-11-04T05:19:32.257Z,7.89
2022-11-04T05:21:59.404Z,7.73
2022-11-04T05:24:26.048Z,7.72
2022-11-04T05:26:52.768Z,7.68
2022-11-04T05:29:19.753Z,7.56
2022-11-04T05:31:46.376Z,7.59
2022-11-04T05:34:13.837Z,7.52
2022-11-04T05:36:40.905Z,7.50
2022-11-04T05:39:07.714Z,7.46
2022-11-04T05:41:35.043Z,7.44
2022-11-04T05:44:03.468Z,7.35
2022-11-04T05:46:30.875Z,7.37
2022-11-04T05:48:57.473Z,7.32
2022-11-04T05:51:26.760Z,7.20
2022-11-04T05:53:53.888Z,7.14
2022-11-04T05:56:20.507Z,7.26
2022-11-04T05:58:47.140Z,7.35
2022-11-04T06:01:50.414Z,7.55
2022-11-04T06:04:18.705Z,7.61
2022-11-04T06:06:45.679Z,7.63
2022-11-04T06:09:12.248Z,7.77
2022-11-04T06:11:39.448Z,7.78
2022-11-04T06:14:06.264Z,7.80
2022-11-04T06:16:32.903Z,7.84
2022-11-04T06:19:03.414Z,7.82
2022-11-04T06:21:34.351Z,7.82
2022-11-04T06:24:00.980Z,7.83
2022-11-04T06:26:28.934Z,7.83
2022-11-04T06:28:56.778Z,7.78
2022-11-04T06:31:23.836Z,7.82
2022-11-04T06:33:50.454Z,7.86
2022-11-04T06:36:17.487Z,7.93
2022-11-04T06:38:47.175Z,7.90
2022-11-04T06:41:16.233Z,7.87
2022-11-04T06:43:43.200Z,7.87
2022-11-04T06:46:27.869Z,7.89
2022-11-04T06:48:56.183Z,7.89
2022-11-04T06:51:23.348Z,7.92
2022-11-04T06:53:49.955Z,7.92
2022-11-04T06:56:16.960Z,7.98
2022-11-04T06:58:47.322Z,7.99
2022-11-04T07:01:20.230Z,8.05
2022-11-04T07:03:53.204Z,8.12
2022-11-04T07:06:20.736Z,8.18
2022-11-04T07:08:48.913Z,8.21
2022-11-04T07:11:17.234Z,8.30
2022-11-04T07:13:44.047Z,8.32
2022-11-04T07:16:11.023Z,8.34
2022-11-04T07:18:37.556Z,8.30
2022-11-04T07:21:09.769Z,8.23
2022-11-04T07:23:36.894Z,8.21
2022-11-04T07:26:05.996Z,8.14
2022-11-04T07:28:33.482Z,8.21
2022-11-04T07:31:01.623Z,8.42
2022-11-04T07:33:28.604Z,8.54
2022-11-04T07:35:58.313Z,8.49
2022-11-04T07:38:26.702Z,8.63
2022-11-04T07:40:53.409Z,8.60
2022-11-04T07:43:19.999Z,8.59
2022-11-04T07:45:46.694Z,8.57
2022-11-04T07:48:13.420Z,8.61
2022-11-04T07:50:40.808Z,8.62
2022-11-04T07:53:08.002Z,8.52
2022-11-04T07:55:43.101Z,8.52
2022-11-04T07:58:10.386Z,8.48
2022-11-04T08:00:36.977Z,8.48
2022-11-04T08:03:03.720Z,8.57
2022-11-04T08:05:30.417Z,8.61
2022-11-04T08:07:58.004Z,8.75
2022-11-04T08:10:25.023Z,8.97
2022-11-04T08:12:52.628Z,9.06
2022-11-04T08:15:19.311Z,9.06
2022-11-04T08:17:45.889Z,9.17
2022-11-04T08:20:12.631Z,9.17
2022-11-04T08:22:39.247Z,9.16
2022-11-04T08:25:06.342Z,9.17
2022-11-04T08:27:34.568Z,9.19
2022-11-04T08:30:01.145Z,9.15
2022-11-04T08:32:28.058Z,9.27
2022-11-04T08:34:54.665Z,9.46
2022-11-04T08:37:21.320Z,9.63
2022-11-04T08:39:48.013Z,9.56
2022-11-04T08:42:15.319Z,9.77
2022-11-04T08:44:42.934Z,9.90
2022-11-04T08:47:10.283Z,9.89
2022-11-04T08:49:41.127Z,10.15
2022-11-04T08:52:07.839Z,10.01
2022-11-04T08:54:34.463Z,10.01
2022-11-04T08:57:01.238Z,9.99
2022-11-04T08:59:27.883Z,9.83
2022-11-04T09:01:54.555Z,9.93
2022-11-04T09:04:21.157Z,9.84
2022-11-04T09:06:48.628Z,9.99
2022-11-04T09:09:16.972Z,9.87
2022-11-04T09:11:44.567Z,10.12
2022-11-04T09:14:11.763Z,10.16
2022-11-04T09:16:39.643Z,9.94
2022-11-04T09:19:06.291Z,9.99
2022-11-04T09:21:33.072Z,10.13
2022-11-04T09:23:59.668Z,10.17
2022-11-04T09:26:26.763Z,10.07
2022-11-04T09:28:58.058Z,9.94
2022-11-04T09:31:27.221Z,10.10
2022-11-04T09:33:55.334Z,10.05
2022-11-04T09:36:22.328Z,9.89
2022-11-04T09:38:49.779Z,9.93
2022-11-04T09:41:53.542Z,9.99
2022-11-04T09:47:53.685Z,9.88
2022-11-04T09:50:25.805Z,10.11
2022-11-04T09:52:58.722Z,10.16
2022-11-04T09:55:51.688Z,10.25
2022-11-04T09:58:18.465Z,10.14
2022-11-04T10:00:56.610Z,10.22
2022-11-04T10:03:44.987Z,10.01
2022-11-04T10:06:26.734Z,10.07
2022-11-04T10:09:11.216Z,10.25
2022-11-04T10:11:43.621Z,10.40
2022-11-04T10:14:34.215Z,10.62
2022-11-04T10:17:16.916Z,10.54
2022-11-04T10:19:56.613Z,10.81
2022-11-04T10:22:41.492Z,10.80
2022-11-04T10:25:16.019Z,10.64
2022-11-04T10:27:45.938Z,10.84
2022-11-04T10:30:12.446Z,11.18
2022-11-04T10:32:47.345Z,11.23
2022-11-04T10:35:39.072Z,11.14
2022-11-04T10:38:44.157Z,11.35
2022-11-04T10:41:26.580Z,11.40
2022-11-04T10:44:19.119Z,11.71
2022-11-04T10:47:02.475Z,11.71
2022-11-04T10:50:26.958Z,11.60
2022-11-04T10:52:46.426Z,11.56
2022-11-04T10:55:28.009Z,12.06
2022-11-04T10:57:57.994Z,11.82
2022-11-04T11:00:35.850Z,11.72
2022-11-04T11:03:21.721Z,11.90
2022-11-04T11:05:49.786Z,11.95
2022-11-04T11:08:32.755Z,11.67
2022-11-04T11:10:59.581Z,11.62
2022-11-04T11:13:34.276Z,11.54
2022-11-04T11:16:24.368Z,11.50
2022-11-04T11:19:20.577Z,11.55
2022-11-04T11:21:52.832Z,11.50
2022-11-04T11:24:23.511Z,11.63
2022-11-04T11:26:53.826Z,11.74
2022-11-04T11:29:30.087Z,11.72
2022-11-04T11:31:58.900Z,11.90
2022-11-04T11:34:31.369Z,11.69
2022-11-04T11:36:59.497Z,11.67
2022-11-04T11:39:28.893Z,11.64
2022-11-04T11:41:58.959Z,11.90
2022-11-04T11:44:31.706Z,12.00
2022-11-04T11:47:04.760Z,11.91
2022-11-04T11:49:34.479Z,12.10
2022-11-04T11:52:32.708Z,12.10
2022-11-04T11:55:19.788Z,12.10
2022-11-04T12:01:42.489Z,12.46
2022-11-04T12:10:54.614Z,12.54
2022-11-04T12:13:28.704Z,12.45
2022-11-04T12:16:11.482Z,12.37
2022-11-04T12:18:59.558Z,12.47
2022-11-04T12:21:33.986Z,12.57
2022-11-04T12:24:21.433Z,12.57
2022-11-04T12:27:03.790Z,12.23
2022-11-04T12:29:37.103Z,12.18
2022-11-04T12:32:27.913Z,12.34
2022-11-04T12:35:19.432Z,12.49
2022-11-04T12:37:45.983Z,12.35
2022-11-04T12:40:23.825Z,12.10
2022-11-04T12:43:00.079Z,11.99
2022-11-04T12:45:47.557Z,12.03
2022-11-04T12:48:38.275Z,12.00
2022-11-04T12:51:30.286Z,12.08
2022-11-04T12:54:21.339Z,12.17
2022-11-04T12:56:57.268Z,12.18
2022-11-04T12:59:37.698Z,12.00
2022-11-04T13:02:17.208Z,11.96
2022-11-04T13:04:56.358Z,12.02
2022-11-04T13:07:33.781Z,12.13
2022-11-04T13:10:06.415Z,12.14
2022-11-04T13:12:43.701Z,12.03
2022-11-04T13:15:19.635Z,12.07
2022-11-04T13:17:49.912Z,11.74
2022-11-04T13:20:45.601Z,11.96
2022-11-04T13:23:28.918Z,11.91
2022-11-04T13:25:56.553Z,12.07
2022-11-04T13:28:23.630Z,12.04
2022-11-04T13:31:01.178Z,11.92
2022-11-04T13:33:44.254Z,11.75
2022-11-04T13:36:25.871Z,11.55
2022-11-04T13:38:56.347Z,11.40
2022-11-04T13:41:53.450Z,11.37
2022-11-04T13:44:29.535Z,11.44
2022-11-04T13:47:01.557Z,11.40
2022-11-04T13:49:34.218Z,11.43
2022-11-04T13:52:09.847Z,11.72
2022-11-04T13:54:42.217Z,11.70
2022-11-04T13:57:16.310Z,11.61
2022-11-04T14:00:03.117Z,11.74
2022-11-04T14:02:47.608Z,11.80
2022-11-04T14:05:32.510Z,11.63
2022-11-04T14:08:02.138Z,11.71
2022-11-04T14:10:51.064Z,11.92
2022-11-04T14:13:42.385Z,11.85
2022-11-04T14:16:13.981Z,11.77
2022-11-04T14:18:42.765Z,11.85
2022-11-04T14:21:22.067Z,11.94
2022-11-04T14:24:16.296Z,11.78
2022-11-04T14:26:47.454Z,11.91
2022-11-04T14:29:23.166Z,11.78
2022-11-04T14:31:52.549Z,11.76
2022-11-04T14:34:28.879Z,11.63
2022-11-04T14:37:19.091Z,11.36
2022-11-04T14:39:45.793Z,11.30
2022-11-04T14:42:14.504Z,11.51
2022-11-04T14:44:49.788Z,11.68
2022-11-04T14:47:16.945Z,11.31
2022-11-04T14:49:52.379Z,11.61
2022-11-04T14:52:32.436Z,11.82
2022-11-04T14:55:12.677Z,11.49
2022-11-04T14:57:44.922Z,11.39
2022-11-04T15:00:23.225Z,11.49
2022-11-04T15:02:59.954Z,11.51
2022-11-04T15:05:29.765Z,11.40
2022-11-04T15:07:56.516Z,11.25
2022-11-04T15:10:25.626Z,11.09
2022-11-04T15:12:57.458Z,11.00
2022-11-04T15:15:41.904Z,10.99
2022-11-04T15:18:14.151Z,10.77
2022-11-04T15:20:47.882Z,10.82
2022-11-04T15:23:17.888Z,10.88
2022-11-04T15:25:48.915Z,10.91
2022-11-04T15:28:25.234Z,10.89
2022-11-04T15:31:20.977Z,10.67
2022-11-04T15:33:54.099Z,10.55
2022-11-04T15:36:23.729Z,10.45
2022-11-04T15:38:57.588Z,10.52
2022-11-04T15:41:43.541Z,10.49
2022-11-04T15:44:24.137Z,10.37
2022-11-04T15:46:57.320Z,10.33
2022-11-04T15:49:35.485Z,10.23
2022-11-04T15:52:09.088Z,10.24
2022-11-04T15:55:00.582Z,10.20
2022-11-04T15:57:34.490Z,10.16
2022-11-04T16:00:09.800Z,10.14
2022-11-04T16:02:45.864Z,10.21
2022-11-04T16:05:12.477Z,10.16
2022-11-04T16:07:49.157Z,10.20
2022-11-04T16:10:34.641Z,10.20
2022-11-04T16:13:18.055Z,10.14
2022-11-04T16:15:56.848Z,10.17
2022-11-04T16:18:34.951Z,10.28
2022-11-04T16:21:11.020Z,10.30
2022-11-04T16:23:45.782Z,10.19
2022-11-04T16:26:12.893Z,10.16
2022-11-04T16:28:41.439Z,10.09
2022-11-04T16:31:24.621Z,9.83
2022-11-04T16:33:51.588Z,9.85
2022-11-04T16:36:24.638Z,9.70
2022-11-04T16:39:04.801Z,9.70
2022-11-04T16:41:35.641Z,9.73
2022-11-04T16:44:04.332Z,9.72
2022-11-04T16:46:33.178Z,9.71
2022-11-04T16:48:59.827Z,9.57
2022-11-04T16:51:26.588Z,9.54
2022-11-04T16:53:54.425Z,9.52
2022-11-04T16:56:24.636Z,9.57
2022-11-04T16:58:52.394Z,9.63
2022-11-04T17:01:19.443Z,9.58
2022-11-04T17:03:46.452Z,9.54
2022-11-04T17:06:15.093Z,9.57
2022-11-04T17:08:42.121Z,9.48
2022-11-04T17:11:10.242Z,9.48
2022-11-04T17:13:37.339Z,9.47
2022-11-04T17:16:05.492Z,9.46
2022-11-04T17:18:33.605Z,9.43
2022-11-04T17:21:05.157Z,9.38
2022-11-04T17:23:31.738Z,9.42
2022-11-04T17:25:58.314Z,9.26
2022-11-04T17:28:24.958Z,9.23
2022-11-04T17:30:51.603Z,9.15
2022-11-04T17:33:19.170Z,9.10
2022-11-04T17:35:50.836Z,9.13
2022-11-04T17:38:18.425Z,9.14
2022-11-04T17:41:04.333Z,9.17
2022-11-04T17:43:49.171Z,9.15
2022-11-04T17:46:35.478Z,9.11
2022-11-04T17:49:08.009Z,9.05
2022-11-04T17:51:35.719Z,9.07
2022-11-04T17:54:02.712Z,9.06
2022-11-04T17:56:29.360Z,9.04
2022-11-04T17:58:55.997Z,9.13
2022-11-04T18:01:23.382Z,9.09
2022-11-04T18:03:52.518Z,9.15
2022-11-04T18:06:20.838Z,9.13
2022-11-04T18:08:48.493Z,9.10
2022-11-04T18:11:35.464Z,9.11
2022-11-04T18:14:02.037Z,9.09
2022-11-04T18:16:28.865Z,9.11
2022-11-04T18:18:57.817Z,9.08
2022-11-04T18:21:24.661Z,9.12
2022-11-04T18:23:51.271Z,9.14
2022-11-04T18:26:19.074Z,9.14
2022-11-04T18:28:45.736Z,9.18
2022-11-04T18:31:19.951Z,9.22
2022-11-04T18:33:46.576Z,9.16
2022-11-04T18:36:13.313Z,9.13
2022-11-04T18:38:39.888Z,9.26
2022-11-04T18:41:06.464Z,9.32
2022-11-04T18:43:33.101Z,9.36
2022-11-04T18:45:59.907Z,9.27
2022-11-04T18:48:26.663Z,9.30
2022-11-04T18:50:53.311Z,9.28
2022-11-04T18:53:25.811Z,9.30
2022-11-04T18:55:53.529Z,9.28
2022-11-04T18:58:20.210Z,9.32
2022-11-04T19:00:46.727Z,9.28
2022-11-04T19:03:13.339Z,9.35
2022-11-04T19:05:41.496Z,9.35
2022-11-04T19:08:08.496Z,9.32
2022-11-04T19:10:57.967Z,9.33
2022-11-04T19:13:26.114Z,9.34
2022-11-04T19:15:52.718Z,9.36
2022-11-04T19:18:19.549Z,9.32
2022-11-04T19:20:46.222Z,9.31
2022-11-04T19:23:12.803Z,9.29
2022-11-04T19:25:41.300Z,9.26
2022-11-04T19:28:32.568Z,9.33
2022-11-04T19:31:03.500Z,9.37
2022-11-04T19:33:30.587Z,9.31
2022-11-04T19:35:58.873Z,9.29
2022-11-04T19:38:26.560Z,9.30
2022-11-04T19:40:54.304Z,9.27
2022-11-04T19:43:22.077Z,9.28
2022-11-04T19:45:49.959Z,9.23
2022-11-04T19:48:18.311Z,9.21
2022-11-04T19:50:48.089Z,9.19
2022-11-04T19:53:16.177Z,9.17
2022-11-04T19:55:50.640Z,9.21
2022-11-04T19:58:18.014Z,9.16
2022-11-04T20:00:45.277Z,9.21
2022-11-04T20:03:11.917Z,9.26
2022-11-04T20:05:40.301Z,9.31
2022-11-04T20:08:08.882Z,9.24
2022-11-04T20:10:41.484Z,9.18
2022-11-04T20:13:52.718Z,9.19
2022-11-04T20:16:28.331Z,9.24
2022-11-04T20:18:59.918Z,9.22
2022-11-04T20:21:29.470Z,9.20
2022-11-04T20:23:57.487Z,9.22
2022-11-04T20:26:24.833Z,9.15
2022-11-04T20:28:54.494Z,9.17
2022-11-04T20:31:23.719Z,9.11
2022-11-04T20:33:51.727Z,9.12
2022-11-04T20:36:21.010Z,9.14
2022-11-04T20:38:47.856Z,9.14
2022-11-04T20:41:18.744Z,9.12
2022-11-04T20:43:47.413Z,9.05
2022-11-04T20:46:17.151Z,9.06
2022-11-04T20:48:43.866Z,9.03
2022-11-04T20:51:15.749Z,8.99
2022-11-04T20:53:43.130Z,8.91
2022-11-04T20:56:14.186Z,8.80
2022-11-04T20:58:42.513Z,8.78
2022-11-04T21:01:12.282Z,8.79
2022-11-04T21:03:38.973Z,8.76
2022-11-04T21:06:05.874Z,8.79
2022-11-04T21:08:36.628Z,8.78
2022-11-04T21:11:04.550Z,8.84
2022-11-04T21:13:32.032Z,8.87
2022-11-04T21:15:59.636Z,8.99
2022-11-04T21:18:26.566Z,9.00
2022-11-04T21:20:53.695Z,9.04
2022-11-04T21:23:21.539Z,9.11
2022-11-04T21:25:54.557Z,9.08
2022-11-04T21:28:21.253Z,9.07
2022-11-04T21:30:50.750Z,9.07
2022-11-04T21:33:17.442Z,9.10
2022-11-04T21:35:44.161Z,9.11
2022-11-04T21:38:18.315Z,9.10
2022-11-04T21:40:45.577Z,9.11
2022-11-04T21:43:13.114Z,9.10
2022-11-04T21:45:39.675Z,9.09
2022-11-04T21:48:06.543Z,9.10
2022-11-04T21:50:33.287Z,9.10
2022-11-04T21:52:59.971Z,9.07
2022-11-04T21:55:26.582Z,9.07
2022-11-04T21:57:53.149Z,9.05
2022-11-04T22:00:19.732Z,9.02
2022-11-04T22:02:53.194Z,9.04
2022-11-04T22:05:19.868Z,9.05
2022-11-04T22:08:05.244Z,9.07
2022-11-04T22:10:31.912Z,9.05
2022-11-04T22:12:58.461Z,9.05
2022-11-04T22:15:43.705Z,9.07
2022-11-04T22:18:10.379Z,9.04
2022-11-04T22:20:37.650Z,9.03
2022-11-04T22:23:04.617Z,9.06
2022-11-04T22:25:31.308Z,9.00
2022-11-04T22:27:58.078Z,9.10
2022-11-04T22:30:25.095Z,9.10
2022-11-04T22:32:52.527Z,9.07
2022-11-04T22:35:19.679Z,9.04
2022-11-04T22:37:47.479Z,9.15
2022-11-04T22:40:14.097Z,9.10
2022-11-04T22:42:40.721Z,9.06
2022-11-04T22:45:11.232Z,9.07
2022-11-04T22:47:41.526Z,9.12
2022-11-04T22:50:08.661Z,9.15
2022-11-04T22:52:35.238Z,9.05
2022-11-04T22:55:01.870Z,9.05
2022-11-04T22:57:28.417Z,9.05
2022-11-04T22:59:55.020Z,9.12
2022-11-04T23:02:21.816Z,9.03
2022-11-04T23:04:48.603Z,9.10
2022-11-04T23:07:15.211Z,9.11
2022-11-04T23:10:00.448Z,9.24
2022-11-04T23:12:45.798Z,9.15
2022-11-04T23:15:31.052Z,9.15
2022-11-04T23:18:16.477Z,9.18
2022-11-04T23:20:43.218Z,9.11
2022-11-04T23:23:28.350Z,9.05
2022-11-04T23:25:54.901Z,9.05
2022-11-04T23:28:40.233Z,9.04
2022-11-04T23:31:06.844Z,9.00
2022-11-04T23:33:52.088Z,9.05
2022-11-04T23:36:50.698Z,8.94
2022-11-04T23:39:17.245Z,9.05
2022-11-04T23:42:02.646Z,8.97
2022-11-04T23:44:47.708Z,8.99
2022-11-04T23:47:32.926Z,8.93
2022-11-04T23:50:18.053Z,9.05
2022-11-04T23:53:03.045Z,9.12
2022-11-04T23:55:48.117Z,9.13
2022-11-04T23:58:33.047Z,9.06
